Terminal Aerodrome Forecast
Issued by NWS Bismarck, ND

Home | Current Version | Previous Version | Graphics & Text | Print | Product List | Glossary On
Versions: 1 2 3 4 5 6 7 8 9 10 11 12 13 14 15 16 17 18 19 20 21 22 23 24 25
000
FTUS43 KBIS 112323
TAFBIS
TAF
KBIS 112323Z 1200/1224 01005KT P6SM SKC
     FM120200 31006KT P6SM SCT025
     FM120400 28005KT P6SM BKN025
     FM120900 28006KT P6SM SCT060
     FM121600 27005KT P6SM BKN120=

USA.gov is the U.S. government's official web portal to all federal, state and local government web resources and services.